CYVR/YVR METAR and TAF weather

Enter ICAO airport designator
Station Type Date Time Source
CYVR METAR 2024/06/14 03:00 UTC NOAA

CYVR 140300Z 13008KT 20SM FEW230 18/05 A2997 RMK CI1 CI TR SLP150 DENSITY ALT 400FT


Station Type Date Time Source
CYVR Decoded METAR 2024/06/14 03:00 UTC NOAA

Vancouver International Air-Port, B. C., Canada (CYVR) 49-11N 123-10W 2M
Jun 13, 2024 - 11:00 PM EDT / 2024.06.14 0300 UTC
Wind: from the SE (130 degrees) at 9 MPH (8 KT):0
Visibility: 20 mile(s):0
Sky conditions: mostly clear
Temperature: 64 F (18 C)
Dew Point: 41 F (5 C)
Relative Humidity: 42%
Pressure (altimeter): 29.97 in. Hg (1014 hPa)
ob: CYVR 140300Z 13008KT 20SM FEW230 18/05 A2997 RMK CI1 CI TR SLP150 DENSITY ALT 400FT
cycle: 3

Station Type Date Time Source
CYVR TAF 2024/06/14 03:42 UTC NOAA